Wetterdaten: Woche 26.03.18 - 01.04.18 (KW13)
Datum Zeit Temp. Aussen Temp. o. S. +5cm Feuchte Auss BlattFeu 1 Luftdruck Regen Sonnenschein Regendauer Solar Windben Empfang
26.03.2018 00:00 6,9 C 5,5 C 3,7 C 78 % 0 lf 1010,8 hPa 0,0 l/m 0,00 h 0,00 h 0 W/m 8,1 km/h (2 Bft) 96,78 %
26.03.2018 01:00 6,3 C 5,4 C 3,5 C 82 % 0 lf 1010,9 hPa 0,0 l/m 0,00 h 0,00 h 0 W/m 6,8 km/h (2 Bft) 95,11 %
26.03.2018 02:00 5,8 C 4,5 C 2,6 C 86 % 0 lf 1011,1 hPa 0,0 l/m 0,00 h 0,00 h 0 W/m 7,1 km/h (2 Bft) 98,44 %
26.03.2018 03:00 4,8 C 3,2 C 1,2 C 87 % 1 lf 1011,6 hPa 0,0 l/m 0,00 h 0,00 h 0 W/m 6,8 km/h (2 Bft) 94,19 %
26.03.2018 04:00 3,7 C 2,1 C -0,1 C 88 % 1 lf 1012,1 hPa 0,0 l/m 0,00 h 0,00 h 0 W/m 2,0 km/h (1 Bft) 98,30 %
26.03.2018 05:00 3,0 C 1,8 C -0,2 C 89 % 3 lf 1012,5 hPa 0,0 l/m 0,00 h 0,00 h 0 W/m 3,1 km/h (1 Bft) 96,07 %
26.03.2018 06:00 2,4 C 0,8 C -1,5 C 90 % 11 lf 1012,8 hPa 0,0 l/m 0,00 h 0,00 h 0 W/m 0,7 km/h (0 Bft) 96,81 %
26.03.2018 07:00 1,9 C 1,2 C -0,4 C 92 % 15 lf 1013,3 hPa 0,0 l/m 0,00 h 0,00 h 13 W/m 6,1 km/h (2 Bft) 96,30 %
26.03.2018 08:00 2,1 C 2,2 C 1,3 C 94 % 15 lf 1014,2 hPa 0,0 l/m 0,00 h 0,00 h 41 W/m 8,4 km/h (2 Bft) 96,59 %
26.03.2018 09:00 2,5 C 7,3 C 3,1 C 95 % 5 lf 1014,8 hPa 0,0 l/m 0,63 h 0,00 h 183 W/m 7,0 km/h (2 Bft) 97,50 %
26.03.2018 10:00 3,9 C 15,4 C 6,5 C 96 % 0 lf 1015,1 hPa 0,0 l/m 1,00 h 0,00 h 415 W/m 11,9 km/h (2 Bft) 93,02 %
26.03.2018 11:00 6,8 C 20,1 C 13,1 C 87 % 0 lf 1015,2 hPa 0,0 l/m 1,00 h 0,00 h 547 W/m 11,0 km/h (2 Bft) 98,65 %
26.03.2018 12:00 9,3 C 18,6 C 13,8 C 73 % 0 lf 1015,2 hPa 0,0 l/m 1,00 h 0,00 h 511 W/m 16,6 km/h (3 Bft) 96,32 %
26.03.2018 13:00 10,2 C 17,1 C 10,9 C 68 % 0 lf 1015,3 hPa 0,0 l/m 1,00 h 0,00 h 431 W/m 17,4 km/h (3 Bft) 96,38 %
26.03.2018 14:00 11,3 C 19,4 C 11,6 C 62 % 0 lf 1015,2 hPa 0,0 l/m 1,00 h 0,00 h 461 W/m 15,4 km/h (3 Bft) 96,04 %
26.03.2018 15:00 11,8 C 18,3 C 12,2 C 59 % 0 lf 1015,1 hPa 0,0 l/m 0,83 h 0,00 h 387 W/m 19,3 km/h (3 Bft) 96,96 %
26.03.2018 16:00 12,0 C 17,8 C 10,7 C 57 % 0 lf 1015,2 hPa 0,0 l/m 0,77 h 0,00 h 264 W/m 16,6 km/h (3 Bft) 97,77 %
26.03.2018 17:00 11,1 C 11,2 C 9,7 C 57 % 0 lf 1015,2 hPa 0,0 l/m 0,00 h 0,00 h 78 W/m 13,5 km/h (3 Bft) 93,22 %
26.03.2018 18:00 10,3 C 10,5 C 9,0 C 60 % 0 lf 1015,1 hPa 0,0 l/m 0,00 h 0,00 h 46 W/m 6,3 km/h (2 Bft) 99,13 %
26.03.2018 19:00 9,7 C 9,1 C 7,5 C 63 % 0 lf 1015,1 hPa 0,0 l/m 0,00 h 0,00 h 12 W/m 7,6 km/h (2 Bft) 97,57 %
26.03.2018 20:00 8,4 C 7,0 C 4,9 C 74 % 12 lf 1015,5 hPa 0,2 l/m 0,00 h 0,60 h 0 W/m 9,3 km/h (2 Bft) 94,40 %
26.03.2018 21:00 7,2 C 5,6 C 3,9 C 83 % 15 lf 1015,6 hPa 0,0 l/m 0,00 h 0,37 h 0 W/m 2,0 km/h (1 Bft) 96,98 %
26.03.2018 22:00 6,1 C 4,3 C 1,9 C 85 % 15 lf 1015,7 hPa 0,0 l/m 0,00 h 0,00 h 0 W/m 1,1 km/h (1 Bft) 97,41 %
26.03.2018 23:00 4,8 C 3,2 C 1,1 C 87 % 15 lf 1015,6 hPa 0,0 l/m 0,00 h 0,00 h 0 W/m 5,1 km/h (1 Bft) 95,37 %
27.03.2018 00:00 4,0 C 2,9 C 0,9 C 90 % 15 lf 1015,5 hPa 0,0 l/m 0,00 h 0,00 h 0 W/m 6,7 km/h (2 Bft) 97,66 %
27.03.2018 01:00 3,8 C 3,1 C 1,5 C 92 % 15 lf 1015,5 hPa 0,0 l/m 0,00 h 0,00 h 0 W/m 8,9 km/h (2 Bft) 95,44 %
27.03.2018 02:00 3,2 C 2,2 C 0,4 C 92 % 15 lf 1015,4 hPa 0,0 l/m 0,00 h 0,00 h 0 W/m 7,4 km/h (2 Bft) 98,01 %
27.03.2018 03:00 2,6 C 1,4 C -0,5 C 93 % 15 lf 1015,2 hPa 0,0 l/m 0,00 h 0,00 h 0 W/m 4,7 km/h (1 Bft) 94,76 %
27.03.2018 04:00 2,0 C 0,6 C -1,8 C 93 % 15 lf 1014,8 hPa 0,0 l/m 0,00 h 0,00 h 0 W/m 0,2 km/h (0 Bft) 98,03 %
27.03.2018 05:00 1,2 C 0,0 C -1,8 C 93 % 15 lf 1014,6 hPa 0,0 l/m 0,00 h 0,00 h 0 W/m 0,9 km/h (0 Bft) 94,46 %
27.03.2018 06:00 0,8 C -0,1 C -1,9 C 94 % 15 lf 1014,2 hPa 0,0 l/m 0,00 h 0,00 h 0 W/m 4,2 km/h (1 Bft) 95,27 %
27.03.2018 07:00 0,8 C 0,1 C -1,4 C 95 % 15 lf 1013,8 hPa 0,0 l/m 0,00 h 0,00 h 17 W/m 6,0 km/h (2 Bft) 98,51 %
27.03.2018 08:00 1,2 C 2,6 C -0,2 C 96 % 15 lf 1013,5 hPa 0,0 l/m 0,93 h 0,00 h 118 W/m 9,4 km/h (2 Bft) 95,04 %
27.03.2018 09:00 3,5 C 8,5 C 2,8 C 97 % 9 lf 1013,0 hPa 0,0 l/m 1,00 h 0,00 h 289 W/m 16,2 km/h (3 Bft) 97,07 %
27.03.2018 10:00 6,1 C 9,5 C 6,3 C 88 % 0 lf 1012,2 hPa 0,0 l/m 0,60 h 0,00 h 270 W/m 17,5 km/h (3 Bft) 96,70 %
27.03.2018 11:00 7,6 C 8,7 C 7,0 C 72 % 0 lf 1011,7 hPa 0,0 l/m 0,20 h 0,00 h 195 W/m 22,9 km/h (4 Bft) 96,61 %
27.03.2018 12:00 8,9 C 11,9 C 11,3 C 66 % 0 lf 1010,7 hPa 0,0 l/m 0,70 h 0,00 h 404 W/m 30,9 km/h (5 Bft) 95,95 %
27.03.2018 13:00 9,7 C 11,3 C 10,8 C 60 % 0 lf 1009,9 hPa 0,0 l/m 0,30 h 0,00 h 282 W/m 30,5 km/h (5 Bft) 96,33 %
27.03.2018 14:00 10,4 C 11,1 C 11,3 C 64 % 0 lf 1008,9 hPa 0,0 l/m 0,00 h 0,03 h 183 W/m 25,0 km/h (4 Bft) 97,07 %
27.03.2018 15:00 10,0 C 9,3 C 8,2 C 70 % 1 lf 1008,2 hPa 0,0 l/m 0,00 h 0,83 h 72 W/m 17,6 km/h (3 Bft) 93,66 %
27.03.2018 16:00 9,4 C 8,1 C 7,2 C 77 % 3 lf 1007,3 hPa 0,0 l/m 0,00 h 1,00 h 72 W/m 13,3 km/h (3 Bft) 97,87 %
27.03.2018 17:00 8,8 C 7,0 C 6,3 C 84 % 8 lf 1006,5 hPa 0,4 l/m 0,00 h 1,00 h 37 W/m 17,1 km/h (3 Bft) 97,48 %
27.03.2018 18:00 7,7 C 6,3 C 5,7 C 90 % 15 lf 1006,1 hPa 1,2 l/m 0,00 h 1,00 h 19 W/m 15,0 km/h (3 Bft) 95,13 %
27.03.2018 19:00 6,8 C 5,7 C 5,0 C 93 % 15 lf 1005,4 hPa 0,2 l/m 0,00 h 0,70 h 16 W/m 13,6 km/h (3 Bft) 95,35 %
27.03.2018 20:00 6,4 C 5,6 C 5,0 C 94 % 15 lf 1004,9 hPa 0,2 l/m 0,00 h 0,47 h 0 W/m 15,1 km/h (3 Bft) 98,08 %
27.03.2018 21:00 6,4 C 5,7 C 5,0 C 95 % 15 lf 1004,5 hPa 0,4 l/m 0,00 h 0,67 h 0 W/m 14,5 km/h (3 Bft) 94,86 %
27.03.2018 22:00 6,3 C 5,6 C 5,0 C 96 % 15 lf 1004,0 hPa 0,0 l/m 0,00 h 0,00 h 0 W/m 13,9 km/h (3 Bft) 97,18 %
27.03.2018 23:00 6,3 C 5,7 C 5,0 C 97 % 15 lf 1003,6 hPa 0,0 l/m 0,00 h 0,17 h 0 W/m 13,9 km/h (3 Bft) 96,38 %
28.03.2018 00:00 6,4 C 6,1 C 5,2 C 98 % 15 lf 1003,4 hPa 0,0 l/m 0,00 h 0,03 h 0 W/m 8,0 km/h (2 Bft) 95,95 %
28.03.2018 01:00 6,9 C 6,7 C 5,7 C 98 % 15 lf 1003,5 hPa 0,0 l/m 0,00 h 0,00 h 0 W/m 9,1 km/h (2 Bft) 97,06 %
28.03.2018 02:00 7,2 C 6,7 C 6,1 C 98 % 15 lf 1003,5 hPa 0,0 l/m 0,00 h 0,00 h 0 W/m 10,5 km/h (2 Bft) 95,60 %
28.03.2018 03:00 7,2 C 6,7 C 5,9 C 98 % 15 lf 1003,4 hPa 0,0 l/m 0,00 h 0,00 h 0 W/m 5,9 km/h (2 Bft) 95,78 %
28.03.2018 04:00 7,2 C 6,7 C 5,6 C 98 % 15 lf 1003,5 hPa 0,0 l/m 0,00 h 0,27 h 0 W/m 11,8 km/h (2 Bft) 99,10 %
28.03.2018 05:00 7,0 C 6,7 C 5,6 C 98 % 15 lf 1003,4 hPa 0,0 l/m 0,00 h 0,03 h 0 W/m 13,0 km/h (3 Bft) 94,17 %
28.03.2018 06:00 6,9 C 6,7 C 5,6 C 98 % 15 lf 1003,7 hPa 0,0 l/m 0,00 h 0,00 h 0 W/m 14,7 km/h (3 Bft) 96,99 %
28.03.2018 07:00 6,9 C 6,7 C 5,6 C 99 % 15 lf 1003,9 hPa 0,0 l/m 0,00 h 0,00 h 8 W/m 13,0 km/h (3 Bft) 97,40 %
28.03.2018 08:00 7,1 C 7,3 C 6,2 C 99 % 6 lf 1003,5 hPa 0,0 l/m 0,00 h 0,00 h 38 W/m 7,8 km/h (2 Bft) 96,48 %
28.03.2018 09:00 7,8 C 9,2 C 7,6 C 99 % 0 lf 1003,3 hPa 0,0 l/m 0,00 h 0,00 h 106 W/m 13,8 km/h (3 Bft) 94,92 %
28.03.2018 10:00 8,1 C 9,4 C 7,7 C 98 % 0 lf 1002,9 hPa 0,0 l/m 0,00 h 0,00 h 84 W/m 11,8 km/h (2 Bft) 96,71 %
28.03.2018 11:00 8,6 C 9,6 C 8,0 C 95 % 6 lf 1002,5 hPa 0,0 l/m 0,00 h 0,17 h 97 W/m 12,9 km/h (3 Bft) 96,95 %
28.03.2018 12:00 8,8 C 8,9 C 7,6 C 91 % 6 lf 1002,0 hPa 0,0 l/m 0,00 h 0,40 h 66 W/m 16,0 km/h (3 Bft) 96,07 %
28.03.2018 13:00 8,8 C 8,4 C 7,6 C 92 % 14 lf 1000,8 hPa 0,0 l/m 0,00 h 0,60 h 86 W/m 12,2 km/h (3 Bft) 96,57 %
28.03.2018 14:00 8,5 C 7,5 C 7,1 C 93 % 15 lf 999,5 hPa 1,2 l/m 0,00 h 1,00 h 67 W/m 14,1 km/h (3 Bft) 98,02 %
28.03.2018 15:00 7,7 C 6,7 C 6,5 C 93 % 15 lf 998,1 hPa 1,2 l/m 0,00 h 1,00 h 67 W/m 15,8 km/h (3 Bft) 92,86 %
28.03.2018 16:00 7,5 C 6,8 C 6,6 C 95 % 15 lf 996,6 hPa 1,0 l/m 0,00 h 1,00 h 54 W/m 16,9 km/h (3 Bft) 98,41 %
28.03.2018 17:00 7,7 C 7,2 C 6,8 C 96 % 15 lf 994,8 hPa 0,2 l/m 0,00 h 0,53 h 56 W/m 21,2 km/h (4 Bft) 97,80 %
28.03.2018 18:00 7,9 C 7,4 C 6,7 C 97 % 15 lf 993,5 hPa 0,6 l/m 0,00 h 0,60 h 25 W/m 16,7 km/h (3 Bft) 94,37 %
28.03.2018 19:00 8,3 C 7,8 C 7,0 C 98 % 14 lf 993,0 hPa 6,6 l/m 0,00 h 0,77 h 7 W/m 20,4 km/h (4 Bft) 96,32 %
28.03.2018 20:00 7,2 C 6,2 C 5,4 C 97 % 15 lf 994,9 hPa 0,2 l/m 0,00 h 0,33 h 3 W/m 39,6 km/h (6 Bft) 98,16 %
28.03.2018 21:00 5,3 C 4,5 C 3,8 C 95 % 15 lf 997,6 hPa 0,0 l/m 0,00 h 0,03 h 0 W/m 38,9 km/h (6 Bft) 95,15 %
28.03.2018 22:00 4,5 C 3,7 C 2,9 C 93 % 15 lf 999,4 hPa 0,0 l/m 0,00 h 0,00 h 0 W/m 35,9 km/h (5 Bft) 96,39 %
28.03.2018 23:00 3,9 C 3,8 C 2,4 C 93 % 4 lf 1000,8 hPa 0,0 l/m 0,00 h 0,10 h 0 W/m 29,2 km/h (5 Bft) 96,54 %
29.03.2018 00:00 3,8 C 3,2 C 2,3 C 93 % 15 lf 1001,8 hPa 0,6 l/m 0,00 h 0,80 h 0 W/m 18,1 km/h (3 Bft) 96,94 %
29.03.2018 01:00 3,8 C 3,3 C 2,8 C 95 % 15 lf 1002,3 hPa 0,0 l/m 0,00 h 0,07 h 0 W/m 22,9 km/h (4 Bft) 96,09 %
29.03.2018 02:00 3,7 C 3,3 C 2,2 C 95 % 15 lf 1002,8 hPa 0,0 l/m 0,00 h 0,10 h 0 W/m 25,0 km/h (4 Bft) 96,11 %
29.03.2018 03:00 3,7 C 3,3 C 2,2 C 95 % 13 lf 1003,3 hPa 0,0 l/m 0,00 h 0,00 h 0 W/m 21,2 km/h (4 Bft) 96,30 %
29.03.2018 04:00 3,8 C 3,5 C 2,2 C 95 % 1 lf 1003,7 hPa 0,0 l/m 0,00 h 0,00 h 0 W/m 20,1 km/h (4 Bft) 97,73 %
29.03.2018 05:00 3,7 C 3,5 C 2,1 C 94 % 0 lf 1003,7 hPa 0,0 l/m 0,00 h 0,00 h 0 W/m 14,2 km/h (3 Bft) 95,94 %
29.03.2018 06:00 3,8 C 3,9 C 2,2 C 94 % 0 lf 1003,8 hPa 0,0 l/m 0,00 h 0,00 h 0 W/m 13,3 km/h (3 Bft) 97,51 %
29.03.2018 07:00 4,1 C 4,1 C 2,8 C 93 % 1 lf 1004,0 hPa 0,0 l/m 0,00 h 0,10 h 10 W/m 12,5 km/h (3 Bft) 95,78 %
29.03.2018 08:00 4,3 C 4,0 C 2,9 C 93 % 14 lf 1004,2 hPa 0,2 l/m 0,00 h 0,43 h 15 W/m 15,2 km/h (3 Bft) 97,03 %
29.03.2018 09:00 4,6 C 4,3 C 3,3 C 94 % 9 lf 1004,5 hPa 0,0 l/m 0,00 h 0,00 h 34 W/m 20,1 km/h (4 Bft) 95,52 %
29.03.2018 10:00 5,0 C 5,9 C 4,5 C 94 % 10 lf 1004,9 hPa 0,0 l/m 0,00 h 0,70 h 113 W/m 20,9 km/h (4 Bft) 97,30 %
29.03.2018 11:00 6,4 C 9,6 C 6,8 C 91 % 0 lf 1005,0 hPa 0,0 l/m 0,23 h 0,07 h 234 W/m 20,0 km/h (4 Bft) 95,92 %
29.03.2018 12:00 8,3 C 13,8 C 9,5 C 81 % 0 lf 1005,1 hPa 0,0 l/m 0,73 h 0,00 h 404 W/m 24,0 km/h (4 Bft) 95,86 %
29.03.2018 13:00 8,6 C 11,1 C 8,1 C 76 % 0 lf 1005,1 hPa 0,0 l/m 0,27 h 0,00 h 295 W/m 23,7 km/h (4 Bft) 97,72 %
29.03.2018 14:00 8,8 C 15,4 C 9,5 C 72 % 0 lf 1005,0 hPa 0,0 l/m 0,93 h 0,00 h 603 W/m 24,6 km/h (4 Bft) 95,02 %
29.03.2018 15:00 10,7 C 16,9 C 11,8 C 67 % 0 lf 1004,5 hPa 0,0 l/m 1,00 h 0,00 h 585 W/m 20,2 km/h (4 Bft) 98,01 %
29.03.2018 16:00 11,1 C 13,8 C 10,5 C 62 % 0 lf 1004,2 hPa 0,0 l/m 0,67 h 0,00 h 326 W/m 21,2 km/h (4 Bft) 95,31 %
29.03.2018 17:00 11,2 C 12,0 C 9,7 C 56 % 0 lf 1003,9 hPa 0,0 l/m 0,73 h 0,00 h 243 W/m 19,6 km/h (3 Bft) 95,51 %
29.03.2018 18:00 11,3 C 11,5 C 8,6 C 56 % 0 lf 1003,8 hPa 0,0 l/m 0,77 h 0,00 h 129 W/m 11,6 km/h (2 Bft) 98,42 %
29.03.2018 19:00 10,5 C 8,5 C 5,3 C 59 % 0 lf 1004,1 hPa 0,0 l/m 0,00 h 0,00 h 19 W/m 2,6 km/h (1 Bft) 97,01 %
29.03.2018 20:00 8,1 C 5,7 C 2,1 C 69 % 0 lf 1004,4 hPa 0,0 l/m 0,00 h 0,00 h 5 W/m 1,7 km/h (1 Bft) 95,12 %
29.03.2018 21:00 6,3 C 5,1 C 1,8 C 74 % 0 lf 1004,6 hPa 0,0 l/m 0,00 h 0,00 h 0 W/m 4,6 km/h (1 Bft) 96,61 %
29.03.2018 22:00 5,6 C 5,2 C 2,1 C 78 % 0 lf 1004,7 hPa 0,0 l/m 0,00 h 0,00 h 0 W/m 7,6 km/h (2 Bft) 96,55 %
29.03.2018 23:00 5,6 C 5,5 C 3,5 C 79 % 0 lf 1004,7 hPa 0,0 l/m 0,00 h 0,00 h 0 W/m 12,5 km/h (3 Bft) 97,23 %
30.03.2018 00:00 5,4 C 4,8 C 3,0 C 82 % 0 lf 1004,5 hPa 0,0 l/m 0,00 h 0,00 h 0 W/m 12,7 km/h (3 Bft) 95,26 %
30.03.2018 01:00 4,7 C 4,4 C 2,6 C 85 % 0 lf 1004,3 hPa 0,0 l/m 0,00 h 0,00 h 0 W/m 11,7 km/h (2 Bft) 96,69 %
30.03.2018 02:00 4,8 C 4,8 C 3,6 C 86 % 0 lf 1004,0 hPa 0,0 l/m 0,00 h 0,03 h 0 W/m 15,7 km/h (3 Bft) 97,53 %
30.03.2018 03:00 5,4 C 5,6 C 3,9 C 85 % 0 lf 1003,4 hPa 0,0 l/m 0,00 h 0,00 h 0 W/m 16,0 km/h (3 Bft) 95,24 %
30.03.2018 04:00 5,6 C 5,6 C 4,0 C 84 % 0 lf 1003,1 hPa 0,0 l/m 0,00 h 0,13 h 0 W/m 12,4 km/h (3 Bft) 97,00 %
30.03.2018 05:00 5,6 C 5,1 C 3,7 C 85 % 1 lf 1003,0 hPa 0,0 l/m 0,00 h 0,57 h 0 W/m 11,0 km/h (2 Bft) 95,78 %
30.03.2018 06:00 5,2 C 3,9 C 3,1 C 89 % 9 lf 1002,7 hPa 0,2 l/m 0,00 h 0,77 h 0 W/m 12,5 km/h (3 Bft) 96,41 %
30.03.2018 07:00 4,9 C 4,0 C 2,9 C 91 % 3 lf 1002,5 hPa 0,0 l/m 0,00 h 0,23 h 18 W/m 15,5 km/h (3 Bft) 97,72 %
30.03.2018 08:00 5,1 C 4,8 C 3,6 C 90 % 0 lf 1002,1 hPa 0,0 l/m 0,00 h 0,00 h 43 W/m 21,9 km/h (4 Bft) 94,09 %
30.03.2018 09:00 5,9 C 6,7 C 4,7 C 87 % 0 lf 1001,9 hPa 0,0 l/m 0,00 h 0,13 h 96 W/m 24,1 km/h (4 Bft) 97,37 %
30.03.2018 10:00 8,2 C 12,6 C 9,3 C 81 % 0 lf 1001,4 hPa 0,0 l/m 0,90 h 0,00 h 363 W/m 28,1 km/h (4 Bft) 98,65 %
30.03.2018 11:00 10,8 C 14,8 C 13,4 C 70 % 0 lf 1000,7 hPa 0,0 l/m 0,83 h 0,00 h 358 W/m 25,3 km/h (4 Bft) 93,28 %
30.03.2018 12:00 12,2 C 15,4 C 14,6 C 62 % 0 lf 999,9 hPa 0,0 l/m 0,93 h 0,00 h 436 W/m 31,9 km/h (5 Bft) 97,65 %
30.03.2018 13:00 13,4 C 17,6 C 13,4 C 58 % 0 lf 998,6 hPa 0,0 l/m 0,93 h 0,00 h 497 W/m 29,9 km/h (5 Bft) 96,30 %
30.03.2018 14:00 14,2 C 16,6 C 14,2 C 53 % 0 lf 998,1 hPa 0,0 l/m 1,00 h 0,00 h 404 W/m 29,5 km/h (5 Bft) 96,58 %
30.03.2018 15:00 13,8 C 15,1 C 14,5 C 53 % 0 lf 997,5 hPa 0,0 l/m 0,83 h 0,00 h 313 W/m 29,3 km/h (5 Bft) 97,08 %
30.03.2018 16:00 13,8 C 14,7 C 14,2 C 54 % 0 lf 996,8 hPa 0,0 l/m 0,23 h 0,00 h 237 W/m 25,9 km/h (4 Bft) 94,67 %
30.03.2018 17:00 13,3 C 13,4 C 12,6 C 57 % 0 lf 996,3 hPa 0,0 l/m 0,00 h 0,00 h 116 W/m 22,2 km/h (4 Bft) 98,29 %
30.03.2018 18:00 12,8 C 12,8 C 11,7 C 59 % 0 lf 996,0 hPa 0,0 l/m 0,00 h 0,00 h 76 W/m 20,6 km/h (4 Bft) 94,95 %
30.03.2018 19:00 12,3 C 12,0 C 10,5 C 61 % 0 lf 995,9 hPa 0,0 l/m 0,10 h 0,00 h 32 W/m 20,7 km/h (4 Bft) 97,14 %
30.03.2018 20:00 11,6 C 10,5 C 8,5 C 66 % 0 lf 995,9 hPa 0,0 l/m 0,00 h 0,77 h 0 W/m 14,1 km/h (3 Bft) 96,30 %
30.03.2018 21:00 10,3 C 8,3 C 6,9 C 78 % 0 lf 996,4 hPa 0,2 l/m 0,00 h 0,63 h 0 W/m 22,2 km/h (4 Bft) 95,66 %
30.03.2018 22:00 9,1 C 7,7 C 6,2 C 84 % 1 lf 996,7 hPa 0,0 l/m 0,00 h 0,13 h 0 W/m 10,6 km/h (2 Bft) 97,36 %
30.03.2018 23:00 8,5 C 8,0 C 5,9 C 85 % 0 lf 997,0 hPa 0,0 l/m 0,00 h 0,00 h 0 W/m 10,7 km/h (2 Bft) 97,72 %
31.03.2018 00:00 8,0 C 7,7 C 6,1 C 85 % 0 lf 997,1 hPa 0,0 l/m 0,00 h 0,00 h 0 W/m 11,2 km/h (2 Bft) 93,33 %
31.03.2018 01:00 7,6 C 6,8 C 4,7 C 85 % 0 lf 997,1 hPa 0,0 l/m 0,00 h 0,00 h 0 W/m 7,8 km/h (2 Bft) 98,72 %
31.03.2018 02:00 6,8 C 5,8 C 3,5 C 87 % 0 lf 997,3 hPa 0,0 l/m 0,00 h 0,00 h 0 W/m 5,6 km/h (1 Bft) 97,58 %
31.03.2018 03:00 5,8 C 4,6 C 1,8 C 89 % 2 lf 997,4 hPa 0,0 l/m 0,00 h 0,00 h 0 W/m 1,9 km/h (1 Bft) 93,39 %
31.03.2018 04:00 4,8 C 3,7 C 1,1 C 91 % 6 lf 997,3 hPa 0,0 l/m 0,00 h 0,00 h 0 W/m 2,4 km/h (1 Bft) 97,90 %
31.03.2018 05:00 4,1 C 3,3 C 0,4 C 92 % 14 lf 997,4 hPa 0,0 l/m 0,00 h 0,00 h 0 W/m 2,4 km/h (1 Bft) 96,86 %
31.03.2018 06:00 3,5 C 2,9 C 0,5 C 93 % 15 lf 997,7 hPa 0,0 l/m 0,00 h 0,00 h 0 W/m 3,2 km/h (1 Bft) 93,92 %
31.03.2018 07:00 3,1 C 2,7 C 0,0 C 94 % 15 lf 997,8 hPa 0,0 l/m 0,00 h 0,00 h 13 W/m 2,6 km/h (1 Bft) 98,73 %
31.03.2018 08:00 3,2 C 4,7 C 1,4 C 95 % 15 lf 997,8 hPa 0,0 l/m 0,27 h 0,00 h 81 W/m 4,2 km/h (1 Bft) 96,62 %
31.03.2018 09:00 4,9 C 10,1 C 4,0 C 96 % 11 lf 998,2 hPa 0,0 l/m 1,00 h 0,00 h 224 W/m 9,0 km/h (2 Bft) 94,93 %
31.03.2018 10:00 8,2 C 15,8 C 10,7 C 88 % 0 lf 998,5 hPa 0,0 l/m 1,00 h 0,00 h 414 W/m 15,0 km/h (3 Bft) 96,38 %
31.03.2018 11:00 11,4 C 18,8 C 16,9 C 72 % 0 lf 998,5 hPa 0,0 l/m 1,00 h 0,00 h 529 W/m 13,4 km/h (3 Bft) 89,95 %
31.03.2018 12:00 12,6 C 18,0 C 14,8 C 65 % 0 lf 998,6 hPa 0,0 l/m 0,57 h 0,00 h 356 W/m 8,4 km/h (2 Bft) 95,36 %
31.03.2018 13:00 13,1 C 20,4 C 13,4 C 63 % 0 lf 998,7 hPa 0,0 l/m 0,73 h 0,00 h 549 W/m 16,6 km/h (3 Bft) 96,65 %
31.03.2018 14:00 14,5 C 21,8 C 14,6 C 59 % 0 lf 998,7 hPa 0,0 l/m 0,57 h 0,00 h 516 W/m 15,9 km/h (3 Bft) 96,49 %
31.03.2018 15:00 13,9 C 17,5 C 14,3 C 59 % 0 lf 998,5 hPa 0,0 l/m 0,60 h 0,00 h 321 W/m 16,4 km/h (3 Bft) 96,68 %
31.03.2018 16:00 13,1 C 14,0 C 12,9 C 61 % 0 lf 998,3 hPa 0,0 l/m 0,00 h 0,00 h 149 W/m 13,8 km/h (3 Bft) 96,68 %
31.03.2018 17:00 13,1 C 14,3 C 12,5 C 62 % 0 lf 998,4 hPa 0,0 l/m 0,40 h 0,00 h 179 W/m 9,7 km/h (2 Bft) 94,66 %
31.03.2018 18:00 13,0 C 13,2 C 10,9 C 63 % 0 lf 998,3 hPa 0,0 l/m 0,33 h 0,00 h 108 W/m 8,7 km/h (2 Bft) 98,17 %
31.03.2018 19:00 12,2 C 10,9 C 8,9 C 64 % 0 lf 998,7 hPa 0,0 l/m 0,00 h 0,00 h 13 W/m 4,4 km/h (1 Bft) 97,00 %
31.03.2018 20:00 10,0 C 8,3 C 6,7 C 77 % 12 lf 999,7 hPa 0,2 l/m 0,00 h 0,77 h 0 W/m 14,5 km/h (3 Bft) 94,82 %
31.03.2018 21:00 8,2 C 6,9 C 5,6 C 87 % 15 lf 1000,8 hPa 2,2 l/m 0,00 h 0,60 h 0 W/m 12,5 km/h (3 Bft) 98,44 %
31.03.2018 22:00 7,5 C 6,3 C 5,6 C 91 % 15 lf 1000,8 hPa 1,0 l/m 0,00 h 0,40 h 0 W/m 4,9 km/h (1 Bft) 95,99 %
31.03.2018 23:00 7,2 C 6,1 C 5,6 C 94 % 15 lf 1001,2 hPa 0,0 l/m 0,00 h 0,00 h 0 W/m 5,3 km/h (1 Bft) 94,59 %
01.04.2018 00:00 6,9 C 6,1 C 5,3 C 95 % 15 lf 1001,2 hPa 0,0 l/m 0,00 h 0,00 h 0 W/m 6,5 km/h (2 Bft) 93,96 %
01.04.2018 01:00 6,6 C 5,9 C 4,9 C 95 % 15 lf 1001,4 hPa 0,0 l/m 0,00 h 0,00 h 0 W/m 10,2 km/h (2 Bft) 97,07 %
01.04.2018 02:00 6,0 C 4,9 C 3,8 C 95 % 15 lf 1001,6 hPa 0,0 l/m 0,00 h 0,00 h 0 W/m 8,5 km/h (2 Bft) 94,59 %
01.04.2018 03:00 5,4 C 4,7 C 3,7 C 95 % 15 lf 1001,9 hPa 0,0 l/m 0,00 h 0,00 h 0 W/m 6,5 km/h (2 Bft) 97,75 %
01.04.2018 04:00 5,6 C 5,2 C 4,2 C 95 % 13 lf 1002,0 hPa 0,0 l/m 0,00 h 0,20 h 0 W/m 13,0 km/h (3 Bft) 96,15 %
01.04.2018 05:00 5,8 C 5,1 C 4,1 C 95 % 15 lf 1002,2 hPa 2,0 l/m 0,00 h 0,97 h 0 W/m 18,9 km/h (3 Bft) 96,23 %
01.04.2018 06:00 5,5 C 5,0 C 3,9 C 95 % 15 lf 1002,5 hPa 0,2 l/m 0,00 h 0,67 h 0 W/m 15,1 km/h (3 Bft) 95,25 %
01.04.2018 07:00 5,5 C 4,8 C 4,0 C 96 % 15 lf 1003,0 hPa 0,4 l/m 0,00 h 0,50 h 5 W/m 14,4 km/h (3 Bft) 97,50 %
01.04.2018 08:00 5,1 C 4,4 C 3,9 C 96 % 15 lf 1003,6 hPa 0,2 l/m 0,00 h 0,47 h 19 W/m 15,9 km/h (3 Bft) 96,89 %
01.04.2018 09:00 5,4 C 5,3 C 4,6 C 96 % 15 lf 1004,5 hPa 0,0 l/m 0,00 h 0,57 h 64 W/m 18,2 km/h (3 Bft) 95,08 %
01.04.2018 10:00 5,6 C 5,2 C 4,5 C 96 % 15 lf 1005,3 hPa 0,0 l/m 0,00 h 0,77 h 41 W/m 17,4 km/h (3 Bft) 96,91 %
01.04.2018 11:00 5,7 C 5,8 C 5,1 C 97 % 15 lf 1006,2 hPa 0,0 l/m 0,00 h 0,47 h 78 W/m 19,3 km/h (3 Bft) 96,88 %
01.04.2018 12:00 6,0 C 6,3 C 5,6 C 97 % 15 lf 1007,1 hPa 0,0 l/m 0,00 h 0,47 h 86 W/m 14,6 km/h (3 Bft) 96,23 %
01.04.2018 13:00 6,9 C 9,7 C 7,8 C 97 % 7 lf 1007,8 hPa 0,0 l/m 0,13 h 0,00 h 247 W/m 13,3 km/h (3 Bft) 97,10 %
01.04.2018 14:00 8,3 C 10,9 C 8,2 C 92 % 0 lf 1008,2 hPa 0,0 l/m 0,20 h 0,00 h 212 W/m 15,8 km/h (3 Bft) 95,53 %
01.04.2018 15:00 8,6 C 9,7 C 8,1 C 86 % 0 lf 1008,3 hPa 0,0 l/m 0,03 h 0,07 h 120 W/m 22,1 km/h (4 Bft) 98,08 %
01.04.2018 16:00 7,1 C 6,9 C 6,1 C 88 % 2 lf 1009,4 hPa 0,0 l/m 0,00 h 0,10 h 63 W/m 24,0 km/h (4 Bft) 96,25 %
01.04.2018 17:00 6,2 C 6,1 C 5,4 C 92 % 2 lf 1010,0 hPa 0,0 l/m 0,00 h 0,00 h 38 W/m 20,6 km/h (4 Bft) 95,50 %
01.04.2018 18:00 5,9 C 5,6 C 4,4 C 94 % 13 lf 1010,5 hPa 0,0 l/m 0,00 h 0,00 h 20 W/m 16,4 km/h (3 Bft) 98,14 %
01.04.2018 19:00 5,8 C 6,0 C 4,8 C 94 % 2 lf 1011,0 hPa 0,0 l/m 0,00 h 0,00 h 11 W/m 11,6 km/h (2 Bft) 95,92 %
01.04.2018 20:00 5,8 C 5,7 C 4,6 C 94 % 0 lf 1011,5 hPa 0,0 l/m 0,00 h 0,00 h 4 W/m 8,8 km/h (2 Bft) 94,46 %
01.04.2018 21:00 5,9 C 5,5 C 4,6 C 94 % 4 lf 1012,3 hPa 0,0 l/m 0,00 h 0,20 h 0 W/m 14,1 km/h (3 Bft) 98,96 %
01.04.2018 22:00 5,8 C 5,0 C 4,3 C 94 % 15 lf 1012,3 hPa 0,0 l/m 0,00 h 0,00 h 0 W/m 7,5 km/h (2 Bft) 94,53 %
01.04.2018 23:00 5,3 C 4,4 C 3,2 C 95 % 15 lf 1012,5 hPa 0,0 l/m 0,00 h 0,00 h 0 W/m 7,6 km/h (2 Bft) 96,43 %
Min-Datum _ 27.03.18 27.03.18 27.03.18 30.03.18 26.03.18 28.03.18 - - - - 26.03.18 31.03.18
_ Min-Zeit 06:48 06:07 06:07 14:48 00:00 19:20 - - - - 02:14 11:53
Minimum _ 0,6 C -0,6 C -2,8 C 51 % 0 lf 992,8 hPa - - - - 0,0 km/h (0 Bft) 4,76 %
Max-Datum _ 31.03.18 31.03.18 31.03.18 28.03.18 26.03.18 26.03.18 28.03.18 31.03.18 30.03.18 31.03.18 28.03.18 26.03.18
_ Max-Zeit 14:30 14:16 11:46 06:40 06:44 22:14 19:44 11:53 05:40 14:16 20:34 00:10
Maximum _ 14,9 C 26,1 C 18,3 C 99 % 15 lf 1015,8 hPa 6,6 l/m 0,08 h 0,08 h 795 W/m 63,1 km/h
W (8 Bft)
100,00 %
Durchschnitt _ 7,1 C 7,8 C 5,8 C 84 % 7 lf 1004,9 hPa #21,0 l/m #28:54 h #26:40 h 177 W/m 14,1 km/h (3 Bft) 96,36 %
© 2018 W. Hausmann